Time;durP1;ratioP1;P1;durP2;ratioP2;P2;SDS_P1;SDS_P2;PMS_P1;PMS_P2;Temp;Humidity;BMP_temperature;BMP_pressure;BME280_temperature;BME280_humidity;BME280_pressure;Samples;Min_cycle;Max_cycle;Signal;HPM_P1;HPM_P2
2023/09/03 00:01:50;;;;;;;0.50;0.20;;;;;;;18.32;100.00;100941.13;4992927;28;20457;-51
2023/09/03 00:04:16;;;;;;;0.40;0.20;;;;;;;18.22;100.00;100939.84;4992872;28;20460;-51
2023/09/03 00:06:43;;;;;;;0.40;0.20;;;;;;;18.05;100.00;100934.41;4992874;28;20538;-51
2023/09/03 00:09:09;;;;;;;1.50;1.50;;;;;;;18.00;100.00;100950.81;4992684;28;20493;-51
2023/09/03 00:11:35;;;;;;;0.40;0.20;;;;;;;17.96;100.00;100945.66;4993027;28;20428;-51
2023/09/03 00:14:02;;;;;;;0.47;0.20;;;;;;;17.96;100.00;100942.97;4992724;28;20458;-51
2023/09/03 00:16:29;;;;;;;0.50;0.20;;;;;;;18.00;100.00;100947.25;4992760;28;20515;-50
2023/09/03 00:18:55;;;;;;;0.40;0.20;;;;;;;17.97;100.00;100947.41;4992591;28;20488;-51
2023/09/03 00:21:22;;;;;;;0.40;0.20;;;;;;;17.94;100.00;100944.84;4992997;28;20528;-51
2023/09/03 00:23:49;;;;;;;0.40;0.20;;;;;;;17.88;100.00;100948.69;4992889;28;20546;-50
2023/09/03 00:26:19;;;;;;;0.40;0.20;;;;;;;18.04;100.00;100952.38;4992955;28;20545;-51
2023/09/03 00:28:45;;;;;;;0.40;0.20;;;;;;;18.03;100.00;100947.09;4992346;28;20460;-50
2023/09/03 00:31:11;;;;;;;0.40;0.20;;;;;;;18.11;100.00;100946.72;4992530;28;20926;-50
2023/09/03 00:33:38;;;;;;;0.40;0.20;;;;;;;18.19;100.00;100944.50;4992468;28;20453;-51
2023/09/03 00:36:08;;;;;;;0.40;0.20;;;;;;;18.05;100.00;100946.06;4992713;28;20508;-51
2023/09/03 00:38:35;;;;;;;0.40;0.20;;;;;;;18.17;100.00;100951.78;4992641;28;20564;-51
2023/09/03 00:41:05;;;;;;;0.40;0.20;;;;;;;18.11;100.00;100949.41;4992512;28;20515;-51
2023/09/03 00:43:33;;;;;;;0.40;0.20;;;;;;;18.09;100.00;100946.78;4980461;28;20507;-51
2023/09/03 00:46:03;;;;;;;0.40;0.20;;;;;;;18.13;100.00;100952.91;4992419;28;20449;-51
2023/09/03 00:48:30;;;;;;;0.40;0.20;;;;;;;17.99;100.00;100954.44;4992581;28;20489;-51
2023/09/03 00:51:02;;;;;;;0.40;0.20;;;;;;;17.92;100.00;100954.78;4992584;28;20519;-51
2023/09/03 00:53:33;;;;;;;0.40;0.20;;;;;;;17.96;100.00;100951.03;4992482;28;20420;-51
2023/09/03 00:55:59;;;;;;;0.40;0.20;;;;;;;17.94;100.00;100953.78;4993583;28;20443;-51
2023/09/03 00:58:26;;;;;;;0.40;0.20;;;;;;;17.88;100.00;100951.41;4996061;28;20544;-51
2023/09/03 01:00:53;;;;;;;0.40;0.20;;;;;;;17.83;100.00;100952.56;4995870;28;20450;-51
2023/09/03 01:03:21;;;;;;;0.40;0.20;;;;;;;17.81;100.00;100958.00;4995648;28;20798;-51
2023/09/03 01:05:47;;;;;;;0.50;0.20;;;;;;;17.77;100.00;100956.41;4995894;28;20939;-51
2023/09/03 01:08:14;;;;;;;0.40;0.20;;;;;;;18.19;100.00;100958.84;4995655;28;20561;-51
2023/09/03 01:11:08;;;;;;;0.40;0.20;;;;;;;17.86;100.00;100957.78;4996025;28;20424;-51
2023/09/03 01:13:58;;;;;;;0.40;0.20;;;;;;;17.79;100.00;100959.03;4995992;28;20532;-51
2023/09/03 01:16:34;;;;;;;0.40;0.20;;;;;;;17.70;100.00;100950.47;4996118;28;20424;-50
2023/09/03 01:19:08;;;;;;;0.40;0.20;;;;;;;17.64;100.00;100956.06;4995641;28;20848;-50
2023/09/03 01:22:04;;;;;;;0.40;0.20;;;;;;;17.69;100.00;100954.09;4995606;28;20542;-51
2023/09/03 01:24:47;;;;;;;0.40;0.20;;;;;;;17.51;100.00;100959.41;4995605;28;20471;-51
2023/09/03 01:27:31;;;;;;;13.10;12.00;;;;;;;17.61;100.00;100949.97;4983008;28;20459;-51
2023/09/03 01:29:59;;;;;;;0.40;0.30;;;;;;;17.56;100.00;100947.53;4995243;28;20577;-51
2023/09/03 01:32:26;;;;;;;0.40;0.20;;;;;;;17.49;100.00;100940.66;4995756;28;20435;-51
2023/09/03 01:34:53;;;;;;;0.40;0.20;;;;;;;17.57;100.00;100943.00;4994006;28;20935;-50
2023/09/03 01:37:20;;;;;;;0.40;0.20;;;;;;;17.62;100.00;100951.72;4995613;28;20799;-50
2023/09/03 01:39:47;;;;;;;0.40;0.20;;;;;;;17.63;100.00;100942.72;4994976;28;20986;-51
2023/09/03 01:42:13;;;;;;;0.40;0.20;;;;;;;17.70;100.00;100941.53;4995322;28;20900;-52
2023/09/03 01:44:41;;;;;;;0.40;0.20;;;;;;;17.62;100.00;100949.91;4995187;28;20519;-51
2023/09/03 01:47:36;;;;;;;0.40;0.20;;;;;;;17.54;100.00;100951.19;4995190;28;20775;-50
2023/09/03 01:50:38;;;;;;;0.40;0.20;;;;;;;17.52;100.00;100956.66;4983601;28;20467;-50
2023/09/03 01:53:19;;;;;;;0.40;0.20;;;;;;;17.35;100.00;100961.94;4976469;28;20457;-50
2023/09/03 01:55:54;;;;;;;0.40;0.20;;;;;;;17.35;100.00;100970.00;4995084;28;20984;-50
2023/09/03 01:58:26;;;;;;;0.40;0.20;;;;;;;17.43;100.00;100979.47;4994443;28;20999;-51
2023/09/03 02:00:54;;;;;;;0.40;0.30;;;;;;;17.28;100.00;100980.19;4994781;28;20947;-50
2023/09/03 02:03:24;;;;;;;0.40;0.20;;;;;;;17.18;100.00;100979.72;4995062;28;20436;-50
2023/09/03 02:05:50;;;;;;;0.40;0.20;;;;;;;17.22;100.00;100977.75;4995205;28;20460;-50
2023/09/03 02:08:17;;;;;;;0.40;0.20;;;;;;;17.33;100.00;100983.50;4994823;28;20484;-50
2023/09/03 02:10:43;;;;;;;0.40;0.20;;;;;;;17.40;100.00;100984.97;4994822;28;20489;-49
2023/09/03 02:13:10;;;;;;;0.40;0.20;;;;;;;17.30;100.00;100993.53;4994557;28;20523;-50
2023/09/03 02:15:36;;;;;;;0.40;0.20;;;;;;;17.24;100.00;100991.09;4994443;28;20459;-49
2023/09/03 02:18:03;;;;;;;0.40;0.20;;;;;;;17.13;100.00;100994.28;4995639;28;20492;-50
2023/09/03 02:20:29;;;;;;;0.40;0.20;;;;;;;17.21;100.00;101005.56;4995078;28;20453;-49
2023/09/03 02:22:56;;;;;;;0.40;0.20;;;;;;;17.10;100.00;101013.22;4994586;28;20528;-50
2023/09/03 02:25:22;;;;;;;0.40;0.20;;;;;;;17.08;100.00;101010.59;4993311;28;20460;-50
2023/09/03 02:27:48;;;;;;;0.40;0.20;;;;;;;17.14;100.00;101009.47;4994535;28;20506;-50
2023/09/03 02:30:16;;;;;;;0.40;0.20;;;;;;;17.13;100.00;101010.38;4994478;28;20571;-50
2023/09/03 02:32:42;;;;;;;0.40;0.20;;;;;;;16.94;100.00;101017.50;4994621;28;20460;-50
2023/09/03 02:35:09;;;;;;;0.40;0.20;;;;;;;16.94;100.00;101010.34;4994639;28;20828;-50
2023/09/03 02:37:35;;;;;;;0.40;0.20;;;;;;;16.93;100.00;101015.78;4994357;28;20881;-50
2023/09/03 02:40:02;;;;;;;0.40;0.20;;;;;;;16.92;100.00;101022.97;4994171;28;20450;-49
2023/09/03 02:42:29;;;;;;;0.40;0.20;;;;;;;16.82;100.00;101025.16;4994381;28;20460;-50
2023/09/03 02:44:55;;;;;;;0.40;0.20;;;;;;;17.00;100.00;101028.00;4994219;28;20463;-49
2023/09/03 02:47:21;;;;;;;0.40;0.20;;;;;;;16.90;100.00;101037.41;4994261;28;20424;-50
2023/09/03 02:49:48;;;;;;;1.03;0.93;;;;;;;17.01;100.00;101035.13;4993842;28;20493;-50
2023/09/03 02:52:14;;;;;;;0.40;0.20;;;;;;;16.99;100.00;101034.28;4993987;28;20432;-50
2023/09/03 02:54:41;;;;;;;0.40;0.20;;;;;;;16.87;100.00;101031.22;4994047;28;20460;-49
2023/09/03 02:57:07;;;;;;;0.40;0.20;;;;;;;16.83;100.00;101029.59;4993983;28;20482;-50
2023/09/03 02:59:34;;;;;;;0.40;0.20;;;;;;;16.85;100.00;101025.00;4993732;28;20448;-49
2023/09/03 03:02:00;;;;;;;0.40;0.20;;;;;;;16.79;100.00;101041.41;4994056;28;20548;-50
2023/09/03 03:04:26;;;;;;;0.40;0.20;;;;;;;16.63;100.00;101042.94;4993881;28;20449;-49
2023/09/03 03:06:53;;;;;;;0.40;0.20;;;;;;;16.83;100.00;101037.63;4993490;28;21033;-50
2023/09/03 03:09:19;;;;;;;0.40;0.20;;;;;;;16.78;100.00;101045.03;4993774;28;20497;-51
2023/09/03 03:11:46;;;;;;;0.40;0.20;;;;;;;16.87;100.00;101050.03;4993779;28;20457;-50
2023/09/03 03:14:14;;;;;;;0.40;0.20;;;;;;;17.02;100.00;101039.56;4993268;28;20537;-50
2023/09/03 03:16:40;;;;;;;0.40;0.20;;;;;;;17.13;100.00;101045.31;4993758;28;20453;-50
2023/09/03 03:19:07;;;;;;;0.40;0.20;;;;;;;17.22;100.00;101044.91;4992185;28;20848;-50
2023/09/03 03:21:35;;;;;;;0.40;0.20;;;;;;;17.26;100.00;101045.66;4993524;28;20556;-50
2023/09/03 03:24:04;;;;;;;0.40;0.20;;;;;;;17.17;100.00;101039.75;4993425;28;20445;-50
2023/09/03 03:26:32;;;;;;;0.40;0.20;;;;;;;17.11;100.00;101042.69;4993327;28;20541;-50
2023/09/03 03:28:59;;;;;;;0.40;0.20;;;;;;;17.25;100.00;101050.16;4993562;28;20915;-49
2023/09/03 03:31:25;;;;;;;0.40;0.20;;;;;;;17.31;100.00;101046.34;4993302;28;20972;-50
2023/09/03 03:33:52;;;;;;;0.40;0.20;;;;;;;17.24;100.00;101043.03;4993111;28;20449;-49
2023/09/03 03:36:20;;;;;;;0.40;0.20;;;;;;;17.33;100.00;101041.78;4993207;28;20534;-50
2023/09/03 03:38:48;;;;;;;0.40;0.20;;;;;;;17.29;100.00;101053.59;4993308;28;20444;-50
2023/09/03 03:41:17;;;;;;;0.40;0.20;;;;;;;17.20;100.00;101046.81;4992049;28;20453;-49
2023/09/03 03:43:45;;;;;;;0.40;0.20;;;;;;;17.24;100.00;101044.84;4993140;28;20831;-49
2023/09/03 03:46:14;;;;;;;0.40;0.20;;;;;;;17.18;100.00;101048.69;4992854;28;20443;-50
2023/09/03 03:48:41;;;;;;;0.40;0.20;;;;;;;17.28;100.00;101039.28;4992951;28;21032;-50
2023/09/03 03:51:08;;;;;;;0.40;0.20;;;;;;;17.22;100.00;101038.69;4992978;28;20551;-50
2023/09/03 03:53:34;;;;;;;0.40;0.20;;;;;;;17.03;100.00;101038.63;4992614;28;20855;-49
2023/09/03 03:56:06;;;;;;;0.40;0.20;;;;;;;17.09;100.00;101044.59;4993341;28;20523;-50
2023/09/03 03:58:34;;;;;;;0.40;0.20;;;;;;;17.08;100.00;101048.22;4997610;28;20553;-50
2023/09/03 04:01:24;;;;;;;0.40;0.20;;;;;;;17.16;100.00;101055.94;4993028;28;20420;-50
2023/09/03 04:03:53;;;;;;;0.40;0.30;;;;;;;17.16;100.00;101053.25;4992890;28;20822;-50
2023/09/03 04:06:20;;;;;;;0.40;0.20;;;;;;;17.16;100.00;101050.59;4992869;28;20453;-50
2023/09/03 04:08:47;;;;;;;0.40;0.20;;;;;;;17.15;100.00;101054.22;4992617;28;20539;-51
2023/09/03 04:11:16;;;;;;;0.40;0.20;;;;;;;17.17;100.00;101057.69;4992910;28;20495;-50
2023/09/03 04:13:43;;;;;;;0.40;0.20;;;;;;;17.10;100.00;101054.38;4992781;28;20893;-49
2023/09/03 04:16:11;;;;;;;0.40;0.20;;;;;;;17.04;100.00;101057.34;4992502;28;20810;-49
2023/09/03 04:18:38;;;;;;;0.40;0.20;;;;;;;17.07;100.00;101067.09;4992615;28;20628;-50
2023/09/03 04:21:04;;;;;;;0.40;0.20;;;;;;;16.94;100.00;101069.41;4993167;28;20852;-50
2023/09/03 04:23:31;;;;;;;0.40;0.20;;;;;;;17.03;100.00;101071.72;4991331;28;20431;-50
2023/09/03 04:25:58;;;;;;;0.40;0.20;;;;;;;16.90;100.00;101075.00;4992605;28;20432;-49
2023/09/03 04:28:25;;;;;;;0.50;0.20;;;;;;;16.99;100.00;101075.47;4992446;28;20506;-50
2023/09/03 04:30:54;;;;;;;0.40;0.20;;;;;;;16.94;100.00;101079.28;4993219;28;20464;-49
2023/09/03 04:33:21;;;;;;;0.40;0.20;;;;;;;16.97;100.00;101088.09;4996373;28;20540;-49
2023/09/03 04:35:53;;;;;;;0.40;0.20;;;;;;;16.85;100.00;101089.47;4996731;28;20894;-50
2023/09/03 04:38:20;;;;;;;0.40;0.20;;;;;;;17.04;100.00;101099.47;4994681;28;20473;-50
2023/09/03 04:40:46;;;;;;;0.40;0.20;;;;;;;17.00;100.00;101095.16;4997156;28;20448;-51
2023/09/03 04:43:13;;;;;;;0.40;0.20;;;;;;;17.01;100.00;101088.84;4996406;28;20877;-50
2023/09/03 04:45:50;;;;;;;0.50;0.20;;;;;;;16.89;100.00;101076.81;4996266;28;20548;-50
2023/09/03 04:48:18;;;;;;;0.40;0.20;;;;;;;16.78;100.00;101074.56;4995787;28;20459;-50
2023/09/03 04:50:45;;;;;;;0.40;0.20;;;;;;;16.81;100.00;101077.13;4995293;28;20516;-49
2023/09/03 04:53:12;;;;;;;0.40;0.20;;;;;;;17.00;100.00;101087.09;4983502;28;20449;-50
2023/09/03 04:55:39;;;;;;;0.40;0.20;;;;;;;16.82;100.00;101084.22;4996155;28;20416;-50
2023/09/03 04:58:06;;;;;;;0.40;0.20;;;;;;;16.92;100.00;101083.84;4996012;28;20482;-50
2023/09/03 05:00:33;;;;;;;0.40;0.20;;;;;;;16.80;100.00;101094.16;4996010;28;20804;-50
2023/09/03 05:03:02;;;;;;;0.40;0.20;;;;;;;16.68;100.00;101091.09;4995755;28;20781;-50
2023/09/03 05:05:29;;;;;;;0.40;0.20;;;;;;;16.67;100.00;101092.91;4995757;28;20455;-49
2023/09/03 05:07:56;;;;;;;0.40;0.20;;;;;;;16.88;100.00;101093.88;4995457;28;20827;-50
2023/09/03 05:10:22;;;;;;;0.40;0.30;;;;;;;16.94;100.00;101093.59;4996712;28;20488;-49
2023/09/03 05:12:49;;;;;;;0.40;0.20;;;;;;;16.90;100.00;101101.84;4995860;28;20544;-50
2023/09/03 05:15:15;;;;;;;0.40;0.20;;;;;;;16.91;100.00;101117.91;4996016;28;20449;-49
2023/09/03 05:17:42;;;;;;;0.40;0.20;;;;;;;16.85;100.00;101115.44;4995892;28;20460;-50
2023/09/03 05:20:09;;;;;;;0.40;0.20;;;;;;;16.90;100.00;101118.84;4995849;28;20424;-50
2023/09/03 05:22:35;;;;;;;0.40;0.20;;;;;;;16.99;100.00;101117.56;4995934;28;20512;-50
2023/09/03 05:25:02;;;;;;;0.40;0.20;;;;;;;17.02;100.00;101130.88;4995008;28;20450;-50
2023/09/03 05:27:29;;;;;;;0.40;0.20;;;;;;;17.07;100.00;101129.75;4995406;28;21013;-50
2023/09/03 05:29:56;;;;;;;0.40;0.20;;;;;;;17.13;100.00;101126.81;4995408;28;20468;-50
2023/09/03 05:32:23;;;;;;;0.50;0.20;;;;;;;17.21;100.00;101128.28;4995422;28;20485;-50
2023/09/03 05:34:50;;;;;;;0.40;0.20;;;;;;;17.16;100.00;101131.19;4995199;28;20935;-50
2023/09/03 05:37:16;;;;;;;0.40;0.20;;;;;;;17.24;100.00;101122.78;4995339;28;20458;-50
2023/09/03 05:39:43;;;;;;;0.40;0.20;;;;;;;17.20;100.00;101119.34;4995099;28;20455;-50
2023/09/03 05:42:09;;;;;;;0.40;0.20;;;;;;;17.25;100.00;101129.91;4994390;28;20420;-50
2023/09/03 05:44:36;;;;;;;0.40;0.20;;;;;;;17.41;100.00;101125.63;4991654;28;20424;-51
2023/09/03 05:47:02;;;;;;;0.40;0.20;;;;;;;17.45;100.00;101130.81;4995308;28;20417;-49
2023/09/03 05:49:29;;;;;;;0.40;0.20;;;;;;;17.54;100.00;101125.94;4995181;28;20479;-50
2023/09/03 05:51:55;;;;;;;0.40;0.33;;;;;;;17.58;100.00;101131.16;4995202;28;20540;-49
2023/09/03 05:54:21;;;;;;;0.40;0.20;;;;;;;17.61;100.00;101132.81;4995018;28;20473;-50
2023/09/03 05:56:48;;;;;;;0.40;0.20;;;;;;;17.70;100.00;101143.22;4994801;28;20436;-50
2023/09/03 05:59:15;;;;;;;0.40;0.20;;;;;;;17.76;100.00;101151.00;4994821;28;20581;-50
2023/09/03 06:01:42;;;;;;;0.40;0.20;;;;;;;17.91;100.00;101147.59;4995003;28;20428;-50
2023/09/03 06:04:13;;;;;;;0.40;0.20;;;;;;;17.94;100.00;101155.53;4994963;28;20511;-49
2023/09/03 06:06:40;;;;;;;0.40;0.20;;;;;;;17.95;100.00;101157.28;4995026;28;21370;-49
2023/09/03 06:09:07;;;;;;;0.40;0.20;;;;;;;17.99;100.00;101156.22;4994724;28;20455;-50
2023/09/03 06:11:33;;;;;;;0.40;0.20;;;;;;;18.12;100.00;101169.13;4993647;28;20505;-50
2023/09/03 06:14:00;;;;;;;0.40;0.20;;;;;;;18.04;100.00;101167.63;4994978;28;20424;-50
2023/09/03 06:16:27;;;;;;;0.40;0.20;;;;;;;18.10;100.00;101165.63;4994734;28;20432;-50
2023/09/03 06:18:54;;;;;;;0.40;0.20;;;;;;;18.19;100.00;101181.34;4994697;28;20502;-50
2023/09/03 06:21:21;;;;;;;0.40;0.20;;;;;;;18.18;100.00;101174.22;4994627;28;20446;-51
2023/09/03 06:23:47;;;;;;;0.40;0.20;;;;;;;18.23;100.00;101181.16;4994454;28;20493;-50
2023/09/03 06:26:14;;;;;;;7.37;6.80;;;;;;;18.33;100.00;101195.03;4998855;28;20453;-50
2023/09/03 06:28:41;;;;;;;0.40;0.20;;;;;;;18.46;100.00;101192.66;4994693;28;20495;-50
2023/09/03 06:31:07;;;;;;;0.40;0.20;;;;;;;18.52;100.00;101201.31;4994468;28;20488;-50
2023/09/03 06:33:36;;;;;;;0.40;0.20;;;;;;;18.61;100.00;101205.38;4993923;28;20432;-50
2023/09/03 06:36:03;;;;;;;0.40;0.20;;;;;;;18.67;100.00;101205.16;4994275;28;20516;-51
2023/09/03 06:38:29;;;;;;;0.40;0.20;;;;;;;18.72;100.00;101211.19;4993596;28;20958;-51
2023/09/03 06:40:55;;;;;;;0.40;0.20;;;;;;;18.72;100.00;101210.31;4994342;28;20485;-50
2023/09/03 06:43:22;;;;;;;0.40;0.20;;;;;;;18.70;100.00;101205.00;4994109;28;20464;-50
2023/09/03 06:45:49;;;;;;;0.40;0.20;;;;;;;18.83;100.00;101207.97;4994242;28;20466;-50
2023/09/03 06:48:15;;;;;;;0.40;0.20;;;;;;;18.89;100.00;101216.63;4993741;28;20473;-50
2023/09/03 06:50:42;;;;;;;0.40;0.20;;;;;;;18.83;100.00;101224.13;4993788;28;21034;-51
2023/09/03 06:53:08;;;;;;;0.40;0.20;;;;;;;18.97;100.00;101221.66;4993738;28;21085;-50
2023/09/03 06:55:34;;;;;;;0.40;0.20;;;;;;;18.99;100.00;101224.28;4992607;28;20462;-51
2023/09/03 06:58:02;;;;;;;0.40;0.20;;;;;;;18.83;100.00;101221.44;4992494;28;20574;-50
2023/09/03 07:00:29;;;;;;;0.50;0.40;;;;;;;19.00;100.00;101221.50;4993577;28;20434;-52
2023/09/03 07:02:55;;;;;;;0.40;0.20;;;;;;;19.15;100.00;101227.97;4994359;28;20421;-51
2023/09/03 07:05:21;;;;;;;0.40;0.20;;;;;;;19.10;100.00;101222.81;4993742;28;20424;-51
2023/09/03 07:07:48;;;;;;;0.40;0.20;;;;;;;19.18;100.00;101214.31;4980937;28;20560;-50
2023/09/03 07:10:14;;;;;;;0.40;0.20;;;;;;;19.37;100.00;101214.31;4992088;28;20482;-50
2023/09/03 07:12:41;;;;;;;0.40;0.20;;;;;;;19.56;100.00;101220.53;4993496;28;20458;-50
2023/09/03 07:15:08;;;;;;;0.40;0.20;;;;;;;19.61;100.00;101221.19;4993507;28;20468;-50
2023/09/03 07:17:34;;;;;;;0.40;0.20;;;;;;;19.68;100.00;101224.44;4993324;28;20434;-50
2023/09/03 07:20:01;;;;;;;0.40;0.20;;;;;;;19.81;100.00;101231.81;4992833;28;21008;-51
2023/09/03 07:22:27;;;;;;;0.40;0.20;;;;;;;19.92;100.00;101238.50;4993054;28;20537;-51
2023/09/03 07:24:54;;;;;;;0.40;0.20;;;;;;;19.96;100.00;101248.16;4993282;28;20457;-50
2023/09/03 07:27:20;;;;;;;0.40;0.20;;;;;;;19.83;100.00;101254.19;4994781;28;20457;-53
2023/09/03 07:29:53;;;;;;;0.40;0.20;;;;;;;19.80;100.00;101251.66;4992930;28;20918;-53
2023/09/03 07:32:21;;;;;;;0.40;0.20;;;;;;;19.98;100.00;101247.13;4989373;28;20464;-52
2023/09/03 07:34:47;;;;;;;0.40;0.20;;;;;;;20.23;100.00;101245.84;4992822;28;20445;-52
2023/09/03 07:37:14;;;;;;;0.40;0.20;;;;;;;20.33;100.00;101247.97;4993641;28;20518;-52
2023/09/03 07:39:41;;;;;;;0.40;0.20;;;;;;;20.48;100.00;101253.53;4993087;28;20476;-52
2023/09/03 07:42:08;;;;;;;0.40;0.20;;;;;;;20.53;100.00;101259.53;4993093;28;20515;-52
2023/09/03 07:44:34;;;;;;;0.40;0.20;;;;;;;20.85;100.00;101257.78;4991677;28;21012;-52
2023/09/03 07:47:01;;;;;;;0.40;0.20;;;;;;;20.75;100.00;101265.53;4992823;28;20454;-52
2023/09/03 07:49:28;;;;;;;0.40;0.20;;;;;;;20.76;100.00;101275.38;4992853;28;20520;-52
2023/09/03 07:51:55;;;;;;;0.40;0.30;;;;;;;20.92;100.00;101267.28;4993028;28;20584;-52
2023/09/03 07:54:21;;;;;;;0.40;0.20;;;;;;;21.12;100.00;101272.47;4993070;28;20453;-52
2023/09/03 07:56:48;;;;;;;0.40;0.20;;;;;;;20.73;100.00;101271.97;4992719;28;20487;-52
2023/09/03 07:59:14;;;;;;;0.40;0.20;;;;;;;20.95;100.00;101269.81;4991433;28;20477;-52
2023/09/03 08:01:40;;;;;;;0.40;0.20;;;;;;;20.86;100.00;101286.56;4992308;28;20453;-52
2023/09/03 08:04:07;;;;;;;0.40;0.20;;;;;;;20.88;100.00;101288.22;4992927;28;20477;-52
2023/09/03 08:06:33;;;;;;;0.83;0.83;;;;;;;21.11;100.00;101288.78;4991331;28;20477;-52
2023/09/03 08:09:00;;;;;;;0.40;0.20;;;;;;;21.14;100.00;101291.28;5019700;23;20558;-52
2023/09/03 08:11:26;;;;;;;0.40;0.20;;;;;;;21.47;100.00;101291.22;5015405;28;20575;-52
2023/09/03 08:13:58;;;;;;;0.40;0.20;;;;;;;21.42;100.00;101296.03;5017057;28;20463;-56
2023/09/03 08:16:25;;;;;;;0.40;0.20;;;;;;;21.18;100.00;101292.84;5014212;28;20564;-52
2023/09/03 08:18:51;;;;;;;0.40;0.20;;;;;;;21.40;100.00;101298.84;5021891;28;20476;-52
2023/09/03 08:21:18;;;;;;;0.40;0.20;;;;;;;21.70;100.00;101298.00;5020297;28;20991;-52
2023/09/03 08:23:44;;;;;;;0.40;0.20;;;;;;;21.82;100.00;101291.88;5025791;28;20439;-51
2023/09/03 08:26:12;;;;;;;0.40;0.20;;;;;;;21.88;100.00;101297.78;5017105;28;20478;-52
2023/09/03 08:28:38;;;;;;;0.50;0.20;;;;;;;22.05;100.00;101301.31;5024990;28;20518;-52
2023/09/03 08:31:05;;;;;;;0.50;0.20;;;;;;;22.02;99.49;101299.66;5014250;28;20481;-52
2023/09/03 08:33:33;;;;;;;0.40;0.20;;;;;;;22.11;96.44;101299.16;5025808;28;21031;-52
2023/09/03 08:36:01;;;;;;;0.40;0.20;;;;;;;21.97;96.91;101301.78;5023109;28;20449;-52
2023/09/03 08:38:27;;;;;;;0.50;0.20;;;;;;;22.36;97.14;101300.38;5028552;28;20455;-52
2023/09/03 08:40:53;;;;;;;0.40;0.20;;;;;;;22.30;95.67;101304.31;5029231;28;20459;-52
2023/09/03 08:43:24;;;;;;;0.40;0.20;;;;;;;22.36;95.04;101303.94;5017880;28;20543;-53
2023/09/03 08:45:56;;;;;;;0.40;0.20;;;;;;;22.37;95.13;101302.97;5019258;28;20423;-52
2023/09/03 08:48:23;;;;;;;0.50;0.20;;;;;;;22.36;93.25;101297.66;5015075;28;20816;-53
2023/09/03 08:50:50;;;;;;;0.40;0.20;;;;;;;22.38;94.72;101311.97;5021401;28;20483;-52
2023/09/03 08:53:17;;;;;;;0.40;0.20;;;;;;;22.58;93.27;101310.72;5021633;28;20449;-53
2023/09/03 08:55:44;;;;;;;0.40;0.20;;;;;;;22.66;93.13;101303.88;5024895;28;20506;-53
2023/09/03 08:58:11;;;;;;;0.50;0.20;;;;;;;22.47;90.68;101309.56;5011746;28;20945;-53
2023/09/03 09:00:38;;;;;;;0.43;0.20;;;;;;;22.95;92.68;101310.19;5025164;28;20522;-53
2023/09/03 09:03:06;;;;;;;0.40;0.20;;;;;;;23.27;91.00;101309.94;5019773;28;20534;-55
2023/09/03 09:05:33;;;;;;;0.40;0.20;;;;;;;22.95;90.86;101307.47;5018354;28;20488;-51
2023/09/03 09:08:01;;;;;;;0.40;0.20;;;;;;;23.10;89.54;101302.91;5023661;28;20453;-53
2023/09/03 09:10:32;;;;;;;0.50;0.20;;;;;;;23.27;88.43;101305.41;5025060;28;20562;-52
2023/09/03 09:13:07;;;;;;;0.50;0.20;;;;;;;23.45;88.55;101305.19;5012463;28;20453;-53
2023/09/03 09:15:35;;;;;;;0.50;0.20;;;;;;;23.52;89.21;101304.66;5021666;28;20459;-53
2023/09/03 09:18:08;;;;;;;0.50;0.20;;;;;;;23.58;87.76;101303.44;5024220;28;20452;-53
2023/09/03 09:20:37;;;;;;;0.50;0.30;;;;;;;23.78;87.16;101300.22;5028422;28;20467;-53
2023/09/03 09:23:04;;;;;;;0.50;0.20;;;;;;;24.02;86.94;101308.56;5017273;28;20539;-53
2023/09/03 09:25:30;;;;;;;0.50;0.20;;;;;;;24.24;85.61;101314.25;5028538;28;20537;-51
2023/09/03 09:28:07;;;;;;;0.50;0.20;;;;;;;24.01;85.06;101314.97;5027177;28;20451;-51
2023/09/03 09:30:34;;;;;;;0.50;0.20;;;;;;;24.02;84.67;101324.88;5008979;28;20477;-51
2023/09/03 09:33:07;;;;;;;0.50;0.20;;;;;;;24.15;86.54;101324.91;5021849;28;20452;-52
2023/09/03 09:35:34;;;;;;;0.50;0.20;;;;;;;24.22;84.36;101321.63;5030915;28;20455;-52
2023/09/03 09:38:06;;;;;;;0.50;0.27;;;;;;;23.86;86.91;101318.75;5033065;28;20542;-52
2023/09/03 09:40:35;;;;;;;0.50;0.20;;;;;;;23.73;86.50;101318.69;5024227;28;20474;-51
2023/09/03 09:43:04;;;;;;;0.40;0.20;;;;;;;24.06;84.24;101322.78;5021511;28;20451;-52
2023/09/03 09:45:31;;;;;;;0.50;0.20;;;;;;;24.12;83.77;101320.53;5024947;28;20448;-51
2023/09/03 09:48:09;;;;;;;0.40;0.20;;;;;;;24.39;82.63;101320.47;5028342;28;20459;-52
2023/09/03 09:50:40;;;;;;;0.50;0.30;;;;;;;24.16;83.83;101318.47;5026458;28;20468;-53
2023/09/03 09:53:20;;;;;;;0.50;0.20;;;;;;;24.07;83.43;101303.66;5021680;28;20454;-52
2023/09/03 09:55:47;;;;;;;0.50;0.20;;;;;;;24.05;83.80;101307.47;5021316;28;20452;-52
2023/09/03 09:58:13;;;;;;;0.43;0.20;;;;;;;23.94;84.41;101305.47;5021456;28;20596;-53
2023/09/03 10:00:41;;;;;;;0.50;0.20;;;;;;;24.36;83.95;101296.25;5027763;28;20468;-52
2023/09/03 10:03:11;;;;;;;0.40;0.20;;;;;;;24.19;84.12;101293.81;5023010;28;20459;-52
2023/09/03 10:05:46;;;;;;;0.50;0.20;;;;;;;24.43;82.83;101292.13;5021235;28;20463;-52
2023/09/03 10:08:13;;;;;;;0.50;0.20;;;;;;;24.76;80.20;101290.69;5024546;28;20454;-52
2023/09/03 10:10:40;;;;;;;0.40;0.20;;;;;;;24.75;79.95;101297.13;5027620;28;20480;-52
2023/09/03 10:13:07;;;;;;;0.50;0.20;;;;;;;24.75;79.73;101305.28;5015459;28;20780;-53
2023/09/03 10:15:35;;;;;;;0.50;0.20;;;;;;;24.48;78.31;101306.25;5027609;28;20452;-53
2023/09/03 10:18:02;;;;;;;0.50;0.20;;;;;;;24.70;78.77;101302.91;5025138;28;20452;-53
2023/09/03 10:20:29;;;;;;;0.50;0.20;;;;;;;25.18;78.40;101297.63;5020671;28;20707;-53
2023/09/03 10:22:56;;;;;;;0.50;0.20;;;;;;;24.96;79.11;101309.19;5022973;28;20495;-53
2023/09/03 10:25:28;;;;;;;1.27;1.17;;;;;;;24.79;78.82;101310.38;5027560;28;20888;-53
2023/09/03 10:28:00;;;;;;;0.50;0.30;;;;;;;25.02;77.08;101306.03;5025997;28;20843;-53
2023/09/03 10:30:31;;;;;;;0.50;0.20;;;;;;;24.24;78.22;101308.81;5020478;28;20463;-52
2023/09/03 10:32:59;;;;;;;0.50;0.20;;;;;;;24.65;78.35;101307.78;5020801;28;20534;-51
2023/09/03 10:35:25;;;;;;;0.50;0.20;;;;;;;24.59;79.33;101305.50;5029684;28;20459;-53
2023/09/03 10:37:52;;;;;;;0.50;0.20;;;;;;;24.52;79.05;101305.06;5020566;28;20544;-53
2023/09/03 10:40:20;;;;;;;0.50;0.30;;;;;;;24.59;78.52;101308.22;5026078;28;20559;-53
2023/09/03 10:42:51;;;;;;;0.50;0.20;;;;;;;24.69;77.04;101309.31;5023573;28;20452;-53
2023/09/03 10:45:20;;;;;;;0.50;0.30;;;;;;;24.82;74.33;101309.31;5025480;28;20451;-53
2023/09/03 10:48:00;;;;;;;0.50;0.20;;;;;;;24.79;77.04;101304.94;5015844;28;20456;-53
2023/09/03 10:50:50;;;;;;;0.50;0.20;;;;;;;25.00;76.86;101301.66;5022668;28;20587;-53
2023/09/03 10:53:43;;;;;;;0.50;0.20;;;;;;;25.21;76.33;101307.41;5009628;28;20921;-52
2023/09/03 10:56:12;;;;;;;0.50;0.30;;;;;;;25.17;74.50;101305.91;5020012;28;20980;-53
2023/09/03 10:58:51;;;;;;;0.50;0.40;;;;;;;25.18;70.81;101299.47;5016658;28;20483;-53
2023/09/03 11:01:31;;;;;;;0.50;0.20;;;;;;;25.16;71.74;101301.44;5007500;28;20872;-53
2023/09/03 11:04:00;;;;;;;0.50;0.30;;;;;;;25.63;75.57;101309.69;5019964;28;20444;-53
2023/09/03 11:06:32;;;;;;;0.50;0.30;;;;;;;25.01;78.16;101307.03;5024062;28;20461;-53
2023/09/03 11:09:05;;;;;;;0.50;0.30;;;;;;;25.04;78.92;101306.78;5026569;28;20483;-53
2023/09/03 11:11:35;;;;;;;0.50;0.20;;;;;;;24.81;78.86;101313.88;5024363;28;20601;-53
2023/09/03 11:14:02;;;;;;;0.50;0.20;;;;;;;24.50;78.94;101314.31;5019566;28;20505;-53
2023/09/03 11:16:31;;;;;;;0.50;0.23;;;;;;;24.55;79.26;101306.72;5021577;28;20522;-53
2023/09/03 11:18:58;;;;;;;0.50;0.20;;;;;;;24.96;77.96;101306.47;5026423;28;20475;-53
2023/09/03 11:21:27;;;;;;;0.50;0.20;;;;;;;24.89;76.97;101307.00;5025464;28;20522;-53
2023/09/03 11:23:59;;;;;;;0.50;0.20;;;;;;;25.12;77.10;101311.69;5019274;28;20538;-54
2023/09/03 11:26:26;;;;;;;0.50;0.30;;;;;;;25.06;77.73;101312.13;5019383;28;20456;-54